NEW EXCHEQUER-LK MCCLURE (EXC)

Elevation: 879' · MERCED R basin · Operator: Merced Irrigation District

Provisional data, subject to change.
Query executed Wednesday at 18:09:11   clock

Select a sensor type for a plot of data.
Note: Reservoir Flows are daily averages.

Earlier

Date RES ELE    STORAGE    RES CHG    TOC STO    ABV TOC    OUTFLOW    INFLOW    PPT INC    TEMP MN    TEMP MX    TEMP AV   
 FEET   AF   AF   AF   AF   CFS   CFS   INCHES   DEG F   DEG F   DEG F  
02/05/2015 586.29 63819 -- 674600 -610781 33 144 0.00 -- -- --
02/06/2015 586.55 64105 -- 674600 -610495 35 179 0.78 -- -- --
02/07/2015 586.92 64512 -- 674600 -610088 26 231 0.04 -- -- --
02/08/2015 588.87 66657 -- 674600 -607943 25 1107 0.20 -- -- --
02/09/2015 594.70 73540 -- 674600 -601060 138 3609 0.00 -- -- --
02/10/2015 596.65 75880 -- 674600 -598720 165 1345 0.00 -- -- --
02/11/2015 597.79 77248 924 674600 -597352 173 863 0.00 -- -- --
02/12/2015 598.59 78208 612 674600 -596392 168 652 0.00 -- -- --
02/13/2015 599.37 79144 576 674600 -595456 175 647 0.00 -- -- --
02/14/2015 600.12 80044 600 674600 -594556 167 621 0.00 -- -- --
02/15/2015 600.91 80992 612 674600 -593608 165 643 0.00 -- -- --
02/16/2015 601.53 81789 498 674600 -592811 165 567 0.00 -- -- --
02/17/2015 602.09 82517 455 674600 -592083 165 532 0.00 -- -- --
02/18/2015 602.64 83232 429 674600 -591368 184 544 0.00 -- -- --
02/19/2015 603.18 83934 429 674600 -590666 198 552 0.00 -- -- --
02/20/2015 603.71 84623 442 674600 -589977 200 547 0.00 -- -- --
02/21/2015 604.17 85221 403 674600 -- 203 505 0.01 -- -- --
02/22/2015 604.62 85806 598 674600 -588976 207 502 0.34 -- -- --
02/23/2015 604.97 86261 286 674600 -588339 207 436 0.00 -- -- --
02/24/2015 605.24 86612 182 674600 -587988 184 361 0.00 -- -- --
02/25/2015 605.43 86859 104 674600 -587741 174 299 0.00 -- -- --
02/26/2015 605.59 87067 117 674600 -587533 176 281 0.00 -- -- --
02/27/2015 605.77 87301 117 674600 -587299 165 283 0.01 -- -- --
02/28/2015 605.94 87522 78 674600 -587078 169 280 0.03 -- -- --
03/01/2015 606.08 87704 78 674600 -586896 163 255 0.06 -- -- --
03/02/2015 606.26 87938 104 674600 -586662 148 266 0.02 -- -- --
03/03/2015 605.84 87392 26 674600 -587208 148 260 0.00 -- -- --
03/04/2015 -- -- -- -- -- -- -- -- -- -- --

Later | Latest

Warning! This data is preliminary and subject to revision.

Show EXC Map | Plot EXC Data | 1 Month EXC Data | Real-Time EXC Data | EXC Info